Time;durP1;ratioP1;P1;durP2;ratioP2;P2;SDS_P1;SDS_P2;PMS_P1;PMS_P2;Temp;Humidity;BMP_temperature;BMP_pressure;BME280_temperature;BME280_humidity;BME280_pressure;Samples;Min_cycle;Max_cycle;Signal;HPM_P1;HPM_P2
2023/12/28 00:00:43;;;;;;;14.40;3.05;;;11.00;99.90;;;;;;10583261;27;20043;-71
2023/12/28 00:05:45;;;;;;;18.25;3.33;;;11.10;99.90;;;;;;10583004;27;20046;-71
2023/12/28 00:10:48;;;;;;;14.97;3.53;;;11.00;99.90;;;;;;10583324;27;20062;-71
2023/12/28 00:15:51;;;;;;;14.45;2.70;;;10.90;99.90;;;;;;10581632;27;20394;-70
2023/12/28 00:20:56;;;;;;;17.35;4.60;;;10.80;99.90;;;;;;10582445;27;20092;-70
2023/12/28 00:25:59;;;;;;;12.32;3.03;;;10.80;99.90;;;;;;10585391;27;20047;-68
2023/12/28 00:31:02;;;;;;;11.60;2.60;;;10.80;99.90;;;;;;10582647;27;20055;-70
2023/12/28 00:36:05;;;;;;;12.95;2.75;;;10.80;99.90;;;;;;10601000;27;21007;-72
2023/12/28 00:41:07;;;;;;;16.45;2.95;;;10.80;99.90;;;;;;10593251;27;20093;-69
2023/12/28 00:46:11;;;;;;;16.80;3.70;;;10.80;99.90;;;;;;10588436;27;20522;-70
2023/12/28 00:51:15;;;;;;;9.45;2.38;;;10.60;99.90;;;;;;10589412;27;20476;-70
2023/12/28 00:56:17;;;;;;;8.63;2.65;;;10.70;99.90;;;;;;10590453;27;20051;-69
2023/12/28 01:01:23;;;;;;;9.98;3.13;;;10.50;99.90;;;;;;10588812;27;20070;-70
2023/12/28 01:06:28;;;;;;;15.88;3.20;;;10.60;99.90;;;;;;10579523;27;20051;-70
2023/12/28 01:11:31;;;;;;;12.40;2.42;;;10.30;99.90;;;;;;10583893;27;20573;-70
2023/12/28 01:16:35;;;;;;;8.37;2.33;;;10.40;99.90;;;;;;10585323;27;20047;-70
2023/12/28 01:21:37;;;;;;;12.90;3.47;;;10.30;99.90;;;;;;10588372;27;20054;-70
2023/12/28 01:26:39;;;;;;;14.63;2.85;;;10.20;99.90;;;;;;10588024;27;20051;-70
2023/12/28 01:31:44;;;;;;;12.90;3.17;;;10.40;99.90;;;;;;10590253;27;20055;-70
2023/12/28 01:36:46;;;;;;;16.08;3.05;;;10.40;99.90;;;;;;10588180;27;20079;-70
2023/12/28 01:41:50;;;;;;;14.07;3.30;;;10.30;99.90;;;;;;10584384;27;20047;-71
2023/12/28 01:46:53;;;;;;;16.40;2.90;;;10.40;99.90;;;;;;10586270;27;20844;-70
2023/12/28 01:51:56;;;;;;;17.30;3.10;;;10.30;99.90;;;;;;10586565;27;20059;-70
2023/12/28 01:57:01;;;;;;;8.30;2.33;;;10.40;99.90;;;;;;10585855;27;20047;-71
2023/12/28 02:02:05;;;;;;;18.00;2.92;;;10.50;99.90;;;;;;10585008;27;20930;-70
2023/12/28 02:07:07;;;;;;;13.45;2.58;;;10.40;99.90;;;;;;10587394;27;20043;-69
2023/12/28 02:12:09;;;;;;;5.05;1.95;;;10.50;99.90;;;;;;10575559;27;20083;-69
2023/12/28 02:17:17;;;;;;;14.52;2.88;;;10.60;99.90;;;;;;10583302;27;20092;-71
2023/12/28 02:22:19;;;;;;;19.05;3.67;;;10.40;99.90;;;;;;10584001;27;20152;-70
2023/12/28 02:27:25;;;;;;;12.73;2.60;;;10.40;99.90;;;;;;10580068;27;20111;-71
2023/12/28 02:32:34;;;;;;;17.67;2.53;;;10.30;99.90;;;;;;10581716;27;20406;-71
2023/12/28 02:37:39;;;;;;;20.38;3.38;;;10.40;99.90;;;;;;10580352;27;20785;-70
2023/12/28 02:42:43;;;;;;;11.07;1.30;;;10.30;99.90;;;;;;10583585;27;20163;-70
2023/12/28 02:47:45;;;;;;;15.93;3.03;;;10.60;99.90;;;;;;10582740;27;20070;-70
2023/12/28 02:52:47;;;;;;;15.10;3.08;;;10.40;99.90;;;;;;10581099;27;20186;-71
2023/12/28 02:57:54;;;;;;;13.03;2.77;;;10.30;99.90;;;;;;10580826;27;20043;-70
2023/12/28 03:02:57;;;;;;;19.10;3.15;;;10.50;99.90;;;;;;10584729;27;20063;-70
2023/12/28 03:07:59;;;;;;;;;;;10.40;99.90;;;;;;10583165;27;20050;-69
2023/12/28 03:13:03;;;;;;;21.08;4.05;;;10.40;99.90;;;;;;10584140;27;19931;-70
2023/12/28 03:18:06;;;;;;;22.95;3.80;;;10.50;99.90;;;;;;10586180;27;20159;-70
2023/12/28 03:23:08;;;;;;;17.02;3.00;;;10.40;99.90;;;;;;10591649;27;20066;-68
2023/12/28 03:28:11;;;;;;;27.43;3.30;;;10.20;99.90;;;;;;10591704;27;20054;-67
2023/12/28 03:33:13;;;;;;;18.85;2.50;;;10.40;99.90;;;;;;10586800;27;20051;-69
2023/12/28 03:38:16;;;;;;;25.53;3.40;;;10.70;99.90;;;;;;10586483;27;20135;-70
2023/12/28 03:43:19;;;;;;;21.38;2.75;;;10.60;99.90;;;;;;10577927;27;20055;-68
2023/12/28 03:48:21;;;;;;;18.50;3.05;;;10.50;99.90;;;;;;10580314;27;20047;-70
2023/12/28 03:53:24;;;;;;;20.55;3.72;;;10.60;99.90;;;;;;10583232;27;20054;-68
2023/12/28 04:15:35;;;;;;;21.58;3.33;;;10.60;99.90;;;;;;10531212;27;20617;-69
2023/12/28 04:20:37;;;;;;;24.15;3.85;;;10.70;99.90;;;;;;10543210;28;20055;-69
2023/12/28 04:25:39;;;;;;;18.27;2.63;;;10.90;99.90;;;;;;10544058;28;20097;-69
2023/12/28 04:30:44;;;;;;;14.18;3.42;;;10.90;99.90;;;;;;10547580;28;20051;-70
2023/12/28 04:35:46;;;;;;;19.42;3.22;;;10.80;99.90;;;;;;10556668;28;20051;-69
2023/12/28 04:40:49;;;;;;;28.70;5.37;;;10.90;99.90;;;;;;10522508;28;20063;-69
2023/12/28 04:45:52;;;;;;;22.77;2.95;;;10.90;99.90;;;;;;10543668;28;20055;-69
2023/12/28 04:50:55;;;;;;;29.25;4.25;;;10.90;99.90;;;;;;10541879;28;20051;-69
2023/12/28 04:55:57;;;;;;;25.40;4.03;;;10.90;99.90;;;;;;10536733;28;20056;-68
2023/12/28 05:01:02;;;;;;;18.55;4.45;;;11.10;99.90;;;;;;10546626;28;20048;-68
2023/12/28 05:06:05;;;;;;;29.73;5.72;;;11.00;99.90;;;;;;10541035;28;20518;-69
2023/12/28 05:11:07;;;;;;;32.33;4.88;;;11.00;99.90;;;;;;10532864;28;20045;-68
2023/12/28 05:16:11;;;;;;;31.13;4.77;;;11.10;99.90;;;;;;10532919;28;20122;-69
2023/12/28 05:21:13;;;;;;;34.80;7.05;;;11.20;99.90;;;;;;10544552;28;20128;-69
2023/12/28 05:26:16;;;;;;;18.93;3.03;;;11.10;99.90;;;;;;10515283;28;20053;-68
2023/12/28 05:31:20;;;;;;;25.08;4.32;;;11.20;99.90;;;;;;10494855;28;20566;-70
2023/12/28 05:36:22;;;;;;;25.65;4.95;;;11.20;99.90;;;;;;10511051;28;20044;-69
2023/12/28 05:41:24;;;;;;;32.10;5.80;;;11.20;99.90;;;;;;10510080;28;20164;-69
2023/12/28 05:46:28;;;;;;;25.17;5.03;;;11.20;99.90;;;;;;10508460;28;20292;-69
2023/12/28 05:51:30;;;;;;;32.50;5.38;;;11.30;99.90;;;;;;10518046;28;20387;-70
2023/12/28 05:56:32;;;;;;;38.58;6.80;;;11.30;99.90;;;;;;10518863;28;20051;-69
2023/12/28 06:01:43;;;;;;;36.05;5.72;;;11.40;99.90;;;;;;10520527;28;20052;-70
2023/12/28 06:06:45;;;;;;;35.80;6.18;;;11.20;99.90;;;;;;10521493;28;20050;-69
2023/12/28 06:11:47;;;;;;;30.27;3.87;;;11.20;99.90;;;;;;10502719;28;20059;-69
2023/12/28 06:16:51;;;;;;;39.93;4.97;;;11.20;99.90;;;;;;10512674;28;20497;-69
2023/12/28 06:21:54;;;;;;;43.63;6.53;;;11.30;99.90;;;;;;10521950;28;20044;-70
2023/12/28 06:26:56;;;;;;;32.90;5.43;;;11.40;99.90;;;;;;10509138;28;20701;-69
2023/12/28 06:32:00;;;;;;;34.60;6.30;;;11.20;99.90;;;;;;10503628;28;20047;-69
2023/12/28 06:37:02;;;;;;;41.42;7.05;;;11.20;99.90;;;;;;10504295;28;20040;-69
2023/12/28 06:42:05;;;;;;;40.50;8.20;;;11.30;99.90;;;;;;10503097;28;20048;-67
2023/12/28 06:47:09;;;;;;;36.83;6.32;;;11.10;99.90;;;;;;10505097;28;20657;-68
2023/12/28 06:52:11;;;;;;;36.60;7.15;;;11.00;99.90;;;;;;10505580;28;20055;-69
2023/12/28 06:57:13;;;;;;;53.10;5.30;;;11.00;99.90;;;;;;10506902;28;20823;-69
2023/12/28 07:02:17;;;;;;;37.03;6.27;;;11.00;99.90;;;;;;10492828;28;20052;-69
2023/12/28 07:07:19;;;;;;;28.23;5.20;;;11.00;99.90;;;;;;10503830;28;20048;-68
2023/12/28 07:12:22;;;;;;;36.92;5.93;;;11.10;99.90;;;;;;10510927;28;20087;-69
2023/12/28 07:17:26;;;;;;;;;;;10.90;99.90;;;;;;10507898;28;20051;-68
2023/12/28 07:22:28;;;;;;;50.67;4.47;;;11.10;99.90;;;;;;10493020;28;20679;-68
2023/12/28 07:27:30;;;;;;;37.75;6.70;;;11.00;99.90;;;;;;10504305;28;20183;-68
2023/12/28 07:32:34;;;;;;;27.20;5.97;;;10.90;99.90;;;;;;10503181;28;20075;-70
2023/12/28 07:37:36;;;;;;;32.60;5.78;;;11.10;99.90;;;;;;10510570;28;20058;-68
2023/12/28 07:42:38;;;;;;;30.77;5.38;;;10.90;99.90;;;;;;10507351;28;20071;-68
2023/12/28 07:47:41;;;;;;;38.28;5.47;;;10.90;99.90;;;;;;10498920;28;20154;-68
2023/12/28 07:52:44;;;;;;;27.90;4.68;;;11.00;99.90;;;;;;10502566;28;20052;-68
2023/12/28 07:57:46;;;;;;;22.53;4.53;;;10.80;99.90;;;;;;10511266;28;20052;-69
2023/12/28 08:02:49;;;;;;;47.85;7.00;;;10.80;99.90;;;;;;10510703;28;20059;-69
2023/12/28 08:07:51;;;;;;;29.27;4.53;;;10.90;99.90;;;;;;10516344;28;20525;-69
2023/12/28 08:12:53;;;;;;;16.85;3.13;;;10.80;99.90;;;;;;10502284;28;20051;-69
2023/12/28 08:17:57;;;;;;;31.58;3.92;;;11.20;99.90;;;;;;10499626;28;20478;-69
2023/12/28 08:22:59;;;;;;;23.35;3.55;;;11.50;99.90;;;;;;10505846;28;20051;-67
2023/12/28 08:28:02;;;;;;;33.05;4.68;;;11.50;99.90;;;;;;10511959;28;20670;-69
2023/12/28 08:33:06;;;;;;;26.52;3.10;;;12.30;99.90;;;;;;10491291;28;20040;-70
2023/12/28 08:38:08;;;;;;;19.13;3.78;;;11.90;99.90;;;;;;10502452;28;20101;-67
2023/12/28 08:43:10;;;;;;;32.28;4.80;;;11.80;99.90;;;;;;10507569;28;20048;-67
2023/12/28 08:48:14;;;;;;;25.95;4.75;;;11.70;99.90;;;;;;10509621;28;20119;-69
2023/12/28 08:53:16;;;;;;;41.08;6.00;;;11.50;99.90;;;;;;10506090;28;20857;-68
2023/12/28 08:58:18;;;;;;;33.08;4.65;;;11.00;99.90;;;;;;10501642;28;20812;-69
2023/12/28 09:03:21;;;;;;;25.53;3.73;;;10.80;99.90;;;;;;10518395;28;20059;-67
2023/12/28 09:08:25;;;;;;;36.63;5.43;;;10.90;99.90;;;;;;10509998;28;20055;-68
2023/12/28 09:13:27;;;;;;;34.20;5.57;;;10.80;99.90;;;;;;10513979;28;20044;-68
2023/12/28 09:18:31;;;;;;;38.50;6.25;;;11.00;99.90;;;;;;10509959;28;20078;-68
2023/12/28 09:23:34;;;;;;;48.97;6.75;;;10.80;99.90;;;;;;10502993;28;20052;-67
2023/12/28 09:28:36;;;;;;;39.35;5.53;;;10.60;99.90;;;;;;10503343;28;20763;-68
2023/12/28 09:33:39;;;;;;;37.90;5.57;;;10.60;99.90;;;;;;10515985;28;20707;-68
2023/12/28 09:38:41;;;;;;;33.53;3.83;;;10.70;99.90;;;;;;10512759;28;20048;-69
2023/12/28 09:43:52;;;;;;;30.10;4.25;;;10.40;99.90;;;;;;10495590;28;20777;-68
2023/12/28 09:48:56;;;;;;;36.47;5.25;;;10.30;99.90;;;;;;10496470;28;20128;-68
2023/12/28 09:54:01;;;;;;;33.42;4.05;;;10.30;99.90;;;;;;10501895;28;20043;-67
2023/12/28 09:59:06;;;;;;;30.13;5.20;;;10.50;99.90;;;;;;10509997;28;20078;-69
2023/12/28 10:04:10;;;;;;;41.42;5.72;;;10.90;99.90;;;;;;10512229;28;20051;-69
2023/12/28 10:09:12;;;;;;;45.78;6.80;;;10.60;99.90;;;;;;10510912;28;20129;-69
2023/12/28 10:14:15;;;;;;;25.40;4.35;;;10.70;99.90;;;;;;10496373;28;20077;-68
2023/12/28 10:19:22;;;;;;;32.80;5.23;;;10.90;99.90;;;;;;10509168;28;20764;-68
2023/12/28 10:24:25;;;;;;;43.55;8.20;;;10.90;99.90;;;;;;10511312;28;20076;-69
2023/12/28 10:29:28;;;;;;;34.07;4.63;;;10.80;99.90;;;;;;10500458;28;20048;-70
2023/12/28 10:34:31;;;;;;;;;;;10.90;99.90;;;;;;10502956;28;20075;-69
2023/12/28 10:39:36;;;;;;;30.33;6.38;;;11.20;99.90;;;;;;10500781;28;20100;-70
2023/12/28 10:44:43;;;;;;;28.42;4.88;;;11.10;99.90;;;;;;10486225;28;20048;-71
2023/12/28 10:49:49;;;;;;;35.83;4.85;;;11.20;99.90;;;;;;10489300;28;20689;-71
2023/12/28 10:54:58;;;;;;;29.88;6.07;;;11.20;99.90;;;;;;10509728;28;20807;-69
2023/12/28 11:00:06;;;;;;;23.95;4.05;;;11.10;99.90;;;;;;10503386;28;20043;-71
2023/12/28 11:05:13;;;;;;;34.45;5.97;;;11.20;99.90;;;;;;10506645;28;20051;-70
2023/12/28 11:10:17;;;;;;;45.40;6.63;;;11.10;99.90;;;;;;10503140;28;20229;-72
2023/12/28 11:15:20;;;;;;;34.17;3.92;;;11.20;99.90;;;;;;10505954;28;20044;-72
2023/12/28 11:20:24;;;;;;;40.50;5.47;;;11.10;99.90;;;;;;10511236;28;20047;-72
2023/12/28 11:25:33;;;;;;;20.58;3.53;;;11.10;99.90;;;;;;10506748;28;20040;-72
2023/12/28 11:30:36;;;;;;;32.13;5.60;;;11.40;99.90;;;;;;10504838;28;20055;-71
2023/12/28 11:35:40;;;;;;;35.17;4.28;;;11.20;99.90;;;;;;10508282;28;20396;-70
2023/12/28 11:40:46;;;;;;;45.75;6.63;;;11.50;99.90;;;;;;10510509;28;20052;-71
2023/12/28 11:45:50;;;;;;;31.05;5.47;;;11.40;99.90;;;;;;10509539;27;20191;-71
2023/12/28 11:50:57;;;;;;;35.70;5.65;;;11.40;99.90;;;;;;10503188;28;20078;-72
2023/12/28 11:56:03;;;;;;;25.27;4.43;;;11.50;99.90;;;;;;10513404;28;20092;-70
2023/12/28 12:01:05;;;;;;;29.50;4.97;;;11.60;99.90;;;;;;10505316;28;20048;-70
2023/12/28 12:06:10;;;;;;;37.75;5.97;;;11.70;99.90;;;;;;10507085;28;20085;-70
2023/12/28 12:11:13;;;;;;;29.58;4.78;;;11.70;99.90;;;;;;10503592;28;20056;-71
2023/12/28 12:16:15;;;;;;;35.25;5.47;;;11.80;99.90;;;;;;10506749;28;20424;-69
2023/12/28 12:21:19;;;;;;;34.07;4.70;;;11.80;99.90;;;;;;10501179;28;20461;-69
2023/12/28 12:26:22;;;;;;;43.13;6.57;;;11.80;99.90;;;;;;10491735;28;20047;-69
2023/12/28 12:31:25;;;;;;;35.53;5.10;;;11.70;99.90;;;;;;10489352;28;20052;-70
2023/12/28 12:36:29;;;;;;;23.58;4.72;;;11.70;99.90;;;;;;10507564;28;20486;-69
2023/12/28 12:41:32;;;;;;;36.53;5.45;;;11.70;99.90;;;;;;10509263;28;20213;-69
2023/12/28 12:46:34;;;;;;;25.95;3.53;;;11.80;99.90;;;;;;10505118;28;20078;-69
2023/12/28 12:51:40;;;;;;;35.13;5.32;;;11.80;99.90;;;;;;10514727;28;20044;-69
2023/12/28 12:56:45;;;;;;;24.92;3.30;;;11.60;99.90;;;;;;10507521;28;20048;-68
2023/12/28 13:01:49;;;;;;;28.52;4.50;;;11.80;99.90;;;;;;10495962;28;20182;-68
2023/12/28 13:06:52;;;;;;;34.75;5.80;;;11.70;99.90;;;;;;10514642;28;20052;-68
2023/12/28 13:11:55;;;;;;;44.45;5.97;;;11.60;99.90;;;;;;10510300;28;20064;-67
2023/12/28 13:16:58;;;;;;;45.17;6.33;;;10.90;99.90;;;;;;10515312;28;20070;-66
2023/12/28 13:22:01;;;;;;;;;;;10.70;99.90;;;;;;10505578;28;20055;-67
2023/12/28 13:27:04;;;;;;;0.10;0.10;;;10.70;99.90;;;;;;10509696;28;20448;-68
2023/12/28 13:32:07;;;;;;;0.40;0.40;;;10.50;99.90;;;;;;10513728;28;20423;-70
2023/12/28 13:37:10;;;;;;;0.10;0.10;;;10.50;99.90;;;;;;10512955;28;20048;-69
2023/12/28 13:42:12;;;;;;;27.85;5.05;;;10.60;99.90;;;;;;10511770;28;20060;-68
2023/12/28 13:47:23;;;;;;;42.88;5.55;;;10.80;99.90;;;;;;10501122;28;20087;-66
2023/12/28 13:52:27;;;;;;;28.48;4.65;;;10.70;99.90;;;;;;10504365;28;20141;-70
2023/12/28 13:57:30;;;;;;;32.90;4.72;;;10.60;99.90;;;;;;10486340;28;20940;-69
2023/12/28 14:02:33;;;;;;;29.65;5.38;;;10.70;99.90;;;;;;10505369;28;20052;-68
2023/12/28 14:07:37;;;;;;;42.75;6.47;;;10.70;99.90;;;;;;10501670;28;20159;-68
2023/12/28 14:12:39;;;;;;;45.67;6.03;;;10.40;99.90;;;;;;10505357;28;20047;-69
2023/12/28 14:17:43;;;;;;;36.45;5.50;;;10.40;99.90;;;;;;10496558;28;20192;-69
2023/12/28 14:22:48;;;;;;;33.00;3.88;;;10.40;99.90;;;;;;10497297;28;20950;-69
2023/12/28 14:27:51;;;;;;;34.35;4.18;;;10.40;99.90;;;;;;10492783;28;20052;-69
2023/12/28 14:32:53;;;;;;;34.75;4.72;;;10.60;99.90;;;;;;10493707;28;20148;-69
2023/12/28 14:37:57;;;;;;;31.15;5.68;;;10.80;99.90;;;;;;10486180;28;20538;-69
2023/12/28 14:42:59;;;;;;;30.20;3.65;;;10.60;99.90;;;;;;10495077;28;20055;-70
2023/12/28 14:48:05;;;;;;;41.20;5.00;;;10.90;99.90;;;;;;10490834;28;20055;-70
2023/12/28 14:53:08;;;;;;;26.38;4.68;;;10.70;99.90;;;;;;10489387;28;20052;-69
2023/12/28 14:58:10;;;;;;;30.80;5.15;;;10.80;99.90;;;;;;10486971;28;20581;-70
2023/12/28 15:03:13;;;;;;;32.30;4.90;;;10.80;99.90;;;;;;10496306;28;20053;-68
2023/12/28 15:08:16;;;;;;;25.97;4.00;;;10.90;99.90;;;;;;10483390;28;20091;-70
2023/12/28 15:13:19;;;;;;;30.63;6.28;;;11.00;99.90;;;;;;10494337;28;20055;-70
2023/12/28 15:18:21;;;;;;;35.67;6.28;;;11.10;99.90;;;;;;10495707;28;20048;-69
2023/12/28 15:23:27;;;;;;;29.05;5.25;;;11.10;99.90;;;;;;10475278;28;20043;-69
2023/12/28 15:28:33;;;;;;;26.60;5.80;;;11.00;99.90;;;;;;10494071;28;20048;-69
2023/12/28 15:33:35;;;;;;;24.98;4.65;;;11.00;99.90;;;;;;10502285;28;20069;-69
2023/12/28 15:38:39;;;;;;;21.63;4.10;;;11.10;99.90;;;;;;10494027;28;20193;-69
2023/12/28 15:43:41;;;;;;;28.60;5.88;;;11.00;99.90;;;;;;10494715;28;20044;-69
2023/12/28 15:48:43;;;;;;;26.20;4.60;;;11.00;99.90;;;;;;10494074;28;20068;-70
2023/12/28 15:53:47;;;;;;;26.10;4.97;;;10.90;99.90;;;;;;10499615;28;23118;-69
2023/12/28 15:58:49;;;;;;;35.83;6.07;;;11.10;99.90;;;;;;10489987;28;20075;-69
2023/12/28 16:03:50;;;;;;;23.33;4.25;;;11.00;99.90;;;;;;10495381;28;20453;-70
2023/12/28 16:08:54;;;;;;;32.35;4.95;;;11.10;99.90;;;;;;10493265;28;20123;-73
2023/12/28 16:13:58;;;;;;;25.02;4.72;;;11.00;99.90;;;;;;10495066;28;20814;-70
2023/12/28 16:19:01;;;;;;;29.27;3.55;;;11.00;99.90;;;;;;10488310;28;20051;-71
2023/12/28 16:24:05;;;;;;;28.13;4.65;;;11.10;99.90;;;;;;10494457;28;20400;-71
2023/12/28 16:29:08;;;;;;;17.10;4.05;;;11.00;99.90;;;;;;10493320;28;20529;-71
2023/12/28 16:34:10;;;;;;;21.88;3.50;;;11.10;99.90;;;;;;10490276;28;20048;-70
2023/12/28 16:39:17;;;;;;;20.00;3.78;;;11.10;99.90;;;;;;10491795;28;20044;-71
2023/12/28 16:44:20;;;;;;;21.83;3.38;;;10.90;99.90;;;;;;10488118;28;20048;-69
2023/12/28 16:49:22;;;;;;;26.43;3.27;;;11.10;99.90;;;;;;10476503;28;20637;-69
2023/12/28 16:54:25;;;;;;;23.10;3.17;;;11.20;99.90;;;;;;10489688;28;20114;-69
2023/12/28 16:59:28;;;;;;;33.53;5.97;;;11.30;99.90;;;;;;10492007;28;20094;-68
2023/12/28 17:04:31;;;;;;;29.15;4.32;;;11.10;99.90;;;;;;10492068;28;20076;-70
2023/12/28 17:09:37;;;;;;;17.40;3.80;;;10.90;99.90;;;;;;10495734;28;20062;-70
2023/12/28 17:14:40;;;;;;;29.77;5.00;;;11.00;99.90;;;;;;10496162;28;20169;-70
2023/12/28 17:19:44;;;;;;;37.70;5.10;;;11.10;99.90;;;;;;10489389;28;20830;-69
2023/12/28 17:25:00;;;;;;;27.33;3.35;;;11.00;99.90;;;;;;10497933;28;20090;-69
2023/12/28 17:30:03;;;;;;;19.00;3.65;;;11.10;99.90;;;;;;10483881;28;20561;-69
2023/12/28 17:35:07;;;;;;;33.13;6.63;;;11.10;99.90;;;;;;10506822;28;20701;-70
2023/12/28 17:40:11;;;;;;;22.67;3.78;;;11.10;99.90;;;;;;10494692;28;20052;-71
2023/12/28 17:45:16;;;;;;;29.67;3.95;;;11.20;99.90;;;;;;10495086;28;20139;-70
2023/12/28 17:50:19;;;;;;;33.28;4.20;;;11.00;99.90;;;;;;10493387;28;23010;-70
2023/12/28 17:55:23;;;;;;;30.02;4.88;;;10.90;99.90;;;;;;10495056;28;20064;-70
2023/12/28 18:00:26;;;;;;;23.80;3.90;;;11.00;99.90;;;;;;10493999;28;20082;-70
2023/12/28 18:05:28;;;;;;;26.58;3.78;;;11.10;99.90;;;;;;10501788;28;20109;-71
2023/12/28 18:10:31;;;;;;;21.88;4.28;;;11.10;99.90;;;;;;10501937;28;20048;-69
2023/12/28 18:15:33;;;;;;;24.00;3.95;;;11.20;99.90;;;;;;10497489;28;20146;-69
2023/12/28 18:20:35;;;;;;;31.55;4.50;;;11.30;99.90;;;;;;10514309;27;20163;-69
2023/12/28 18:25:41;;;;;;;19.63;4.23;;;11.10;99.90;;;;;;10499812;28;20157;-70
2023/12/28 18:30:43;;;;;;;26.08;5.57;;;11.10;99.90;;;;;;10497162;28;20083;-70
2023/12/28 18:35:45;;;;;;;28.58;4.20;;;11.00;99.90;;;;;;10507480;28;20427;-70
2023/12/28 18:40:50;;;;;;;24.15;3.20;;;11.10;99.90;;;;;;10507998;28;20043;-69
2023/12/28 18:45:52;;;;;;;22.15;3.83;;;11.10;99.90;;;;;;10495745;28;20079;-70
2023/12/28 18:50:54;;;;;;;24.20;3.67;;;11.00;99.90;;;;;;10493507;28;20051;-69
2023/12/28 18:55:58;;;;;;;20.77;3.60;;;11.00;99.90;;;;;;10479770;28;20044;-69
2023/12/28 19:01:00;;;;;;;21.67;4.88;;;10.90;99.90;;;;;;10499101;28;20089;-72
2023/12/28 19:06:02;;;;;;;29.57;4.37;;;11.00;99.90;;;;;;10501638;28;20051;-71
2023/12/28 19:11:14;;;;;;;34.75;5.90;;;11.00;99.90;;;;;;10497066;28;20060;-67
2023/12/28 19:16:19;;;;;;;21.77;3.63;;;11.10;99.90;;;;;;10498301;28;20040;-70
2023/12/28 19:21:24;;;;;;;35.15;5.80;;;11.00;99.90;;;;;;10501068;28;20059;-68
2023/12/28 19:26:28;;;;;;;23.25;3.47;;;11.00;99.90;;;;;;10504884;28;20299;-68
2023/12/28 19:31:33;;;;;;;24.45;3.90;;;11.00;99.90;;;;;;10498298;28;20079;-71
2023/12/28 19:36:36;;;;;;;20.67;3.50;;;10.90;99.90;;;;;;10506915;28;20660;-69
2023/12/28 19:41:41;;;;;;;24.13;4.65;;;11.00;99.90;;;;;;10503660;28;20483;-72
2023/12/28 19:46:43;;;;;;;19.42;2.92;;;10.80;99.90;;;;;;10500266;28;20530;-72
2023/12/28 19:51:45;;;;;;;18.35;3.78;;;11.20;99.90;;;;;;10506906;28;20106;-73
2023/12/28 19:56:49;;;;;;;23.90;3.58;;;10.90;99.90;;;;;;10500499;28;20064;-71
2023/12/28 20:01:53;;;;;;;40.72;4.65;;;10.90;99.90;;;;;;10498085;28;20130;-74
2023/12/28 20:06:59;;;;;;;15.70;3.75;;;10.80;99.90;;;;;;10499767;28;20040;-69
2023/12/28 20:12:03;;;;;;;21.23;3.95;;;10.80;99.90;;;;;;10489224;28;20061;-75
2023/12/28 20:17:05;;;;;;;19.38;3.17;;;10.80;99.90;;;;;;10498184;28;20157;-71
2023/12/28 20:22:07;;;;;;;21.63;3.77;;;10.90;99.90;;;;;;10492896;28;20079;-72
2023/12/28 20:27:13;;;;;;;15.25;3.47;;;10.80;99.90;;;;;;10487346;28;20058;-72
2023/12/28 20:32:15;;;;;;;22.33;3.95;;;10.80;99.90;;;;;;10493981;28;20067;-72
2023/12/28 20:37:17;;;;;;;25.90;4.57;;;11.00;99.90;;;;;;10488961;28;20044;-72
2023/12/28 20:42:22;;;;;;;22.02;3.78;;;10.50;99.90;;;;;;10473751;28;20055;-72
2023/12/28 20:47:25;;;;;;;19.67;2.90;;;10.60;99.90;;;;;;10472858;28;21076;-72
2023/12/28 20:52:27;;;;;;;20.27;4.20;;;10.70;99.90;;;;;;10490760;28;20056;-72
2023/12/28 20:57:33;;;;;;;15.60;3.80;;;10.80;99.90;;;;;;10485781;28;20048;-71
2023/12/28 21:02:44;;;;;;;22.58;3.70;;;10.80;99.90;;;;;;10500657;28;20071;-72
2023/12/28 21:07:46;;;;;;;24.45;3.72;;;10.70;99.90;;;;;;10502302;28;20048;-71
2023/12/28 21:13:00;;;;;;;29.08;4.03;;;10.70;99.90;;;;;;10504512;28;20533;-71
2023/12/28 21:18:03;;;;;;;27.52;3.13;;;10.50;99.90;;;;;;10502401;28;21341;-72
2023/12/28 21:23:05;;;;;;;12.20;2.65;;;10.60;99.90;;;;;;10499755;28;20051;-70
2023/12/28 21:28:10;;;;;;;22.37;4.57;;;10.60;99.90;;;;;;10490507;28;20052;-72
2023/12/28 21:33:12;;;;;;;27.60;4.15;;;10.40;99.90;;;;;;10494502;28;20111;-72
2023/12/28 21:38:14;;;;;;;32.33;5.55;;;10.20;99.90;;;;;;10478753;28;20056;-72
2023/12/28 21:43:39;;;;;;;0.23;0.23;;;10.40;99.90;;;;;;10500212;28;20060;-71
2023/12/28 21:48:41;;;;;;;5.47;3.10;;;10.20;99.90;;;;;;10494994;28;20562;-70
2023/12/28 21:53:43;;;;;;;0.20;0.20;;;10.10;99.90;;;;;;10503813;28;20113;-68
2023/12/28 21:58:46;;;;;;;1.85;0.55;;;9.90;99.90;;;;;;10505852;28;20540;-71
2023/12/28 22:03:49;;;;;;;0.20;0.20;;;9.70;99.90;;;;;;10505912;28;20067;-70
2023/12/28 22:08:51;;;;;;;3.97;0.65;;;9.70;99.90;;;;;;10507126;28;20138;-70
2023/12/28 22:13:57;;;;;;;0.10;0.10;;;9.60;99.90;;;;;;10504527;28;20055;-70
2023/12/28 22:18:59;;;;;;;0.10;0.10;;;9.50;99.90;;;;;;10510797;28;20260;-68
2023/12/28 22:24:01;;;;;;;0.63;0.63;;;9.70;99.90;;;;;;10512286;28;20052;-70
2023/12/28 22:29:05;;;;;;;0.38;0.38;;;9.60;99.90;;;;;;10505857;28;20051;-70
2023/12/28 22:34:07;;;;;;;0.20;0.20;;;9.50;99.90;;;;;;10500702;28;20040;-70
2023/12/28 22:39:09;;;;;;;27.33;4.50;;;9.70;99.90;;;;;;10503855;28;20067;-71
2023/12/28 22:44:13;;;;;;;37.45;4.50;;;9.70;99.90;;;;;;10491736;28;20071;-70
2023/12/28 22:49:18;;;;;;;35.05;4.75;;;9.90;99.90;;;;;;10498785;28;20495;-71
2023/12/28 22:54:20;;;;;;;34.58;3.97;;;9.90;99.90;;;;;;10502832;28;20040;-73
2023/12/28 22:59:24;;;;;;;28.35;3.33;;;10.00;99.90;;;;;;10496387;28;20116;-71
2023/12/28 23:04:26;;;;;;;51.38;6.07;;;10.10;99.90;;;;;;10498254;28;20067;-72
2023/12/28 23:09:28;;;;;;;20.63;3.63;;;10.20;99.90;;;;;;10499903;28;20079;-71
2023/12/28 23:14:32;;;;;;;37.57;5.03;;;10.30;99.90;;;;;;10498549;28;20268;-71
2023/12/28 23:19:34;;;;;;;22.73;3.53;;;10.30;99.90;;;;;;10496560;28;20063;-72
2023/12/28 23:24:40;;;;;;;30.88;5.07;;;10.30;99.90;;;;;;10499271;28;20175;-71
2023/12/28 23:29:43;;;;;;;26.83;4.20;;;10.40;99.90;;;;;;10492959;28;20950;-71
2023/12/28 23:34:46;;;;;;;28.10;2.80;;;10.40;99.90;;;;;;10497519;28;20063;-71
2023/12/28 23:39:48;;;;;;;0.20;0.20;;;10.20;99.90;;;;;;10500317;28;20501;-71
2023/12/28 23:44:52;;;;;;;1.40;1.30;;;10.00;99.90;;;;;;10497564;28;20067;-71
2023/12/28 23:49:55;;;;;;;33.65;4.65;;;10.00;99.90;;;;;;10496670;28;20052;-70
2023/12/28 23:54:57;;;;;;;23.90;3.88;;;9.90;99.90;;;;;;10505102;28;20052;-70
